Time;durP1;ratioP1;P1;durP2;ratioP2;P2;SDS_P1;SDS_P2;PMS_P1;PMS_P2;Temp;Humidity;BMP_temperature;BMP_pressure;BME280_temperature;BME280_humidity;BME280_pressure;Samples;Min_cycle;Max_cycle;Signal;HPM_P1;HPM_P2
2023/02/09 00:01:34;;;;;;;50.17;42.85;;;26.80;93.10;;;;;;1820595;77;21664;-86
2023/02/09 00:04:05;;;;;;;51.45;42.67;;;26.80;93.00;;;;;;1820482;77;21071;-86
2023/02/09 00:06:36;;;;;;;51.98;44.08;;;26.80;93.20;;;;;;1820190;78;21134;-86
2023/02/09 00:09:06;;;;;;;59.33;46.13;;;26.80;93.10;;;;;;1820345;78;21573;-87
2023/02/09 00:14:26;;;;;;;59.08;47.67;;;26.80;93.10;;;;;;1837696;77;21387;-86
2023/02/09 00:16:57;;;;;;;56.35;45.63;;;26.80;93.10;;;;;;1837962;78;21166;-86
2023/02/09 00:19:28;;;;;;;52.73;44.90;;;26.80;93.20;;;;;;1838033;78;21139;-85
2023/02/09 00:22:01;;;;;;;54.67;44.13;;;26.80;93.10;;;;;;1840052;78;21136;-86
2023/02/09 00:24:31;;;;;;;55.17;46.33;;;26.80;92.90;;;;;;1842465;78;21096;-87
2023/02/09 00:27:02;;;;;;;54.23;45.48;;;26.80;93.00;;;;;;1851942;77;21111;-87
2023/02/09 00:29:33;;;;;;;52.93;45.08;;;26.80;93.10;;;;;;1852166;77;21079;-86
2023/02/09 00:32:04;;;;;;;53.80;44.30;;;26.80;93.40;;;;;;1853319;77;21523;-86
2023/02/09 00:34:37;;;;;;;54.08;44.93;;;26.80;93.00;;;;;;1853218;77;21527;-87
2023/02/09 00:37:08;;;;;;;50.65;43.42;;;26.80;93.10;;;;;;1852425;77;21103;-85
2023/02/09 00:39:39;;;;;;;54.03;44.70;;;26.90;92.90;;;;;;1852063;77;21165;-86
2023/02/09 00:42:10;;;;;;;61.92;46.18;;;26.90;93.00;;;;;;1852056;77;21621;-86
2023/02/09 00:44:41;;;;;;;52.53;45.23;;;26.90;93.00;;;;;;1852039;77;21539;-86
2023/02/09 00:47:12;;;;;;;56.63;45.43;;;26.90;93.00;;;;;;1852166;77;21161;-85
2023/02/09 00:49:43;;;;;;;52.55;43.52;;;27.00;93.30;;;;;;1852034;77;21162;-86
2023/02/09 00:52:14;;;;;;;59.45;47.05;;;27.00;92.70;;;;;;1852062;77;21161;-86
2023/02/09 00:54:48;;;;;;;57.65;47.40;;;27.00;92.80;;;;;;1851884;76;21181;-86
2023/02/09 00:57:19;;;;;;;56.88;48.08;;;27.00;93.00;;;;;;1865708;76;21109;-85
2023/02/09 00:59:49;;;;;;;65.05;47.10;;;27.00;93.00;;;;;;1855939;76;21523;-79
2023/02/09 01:02:21;;;;;;;58.00;47.78;;;27.00;93.10;;;;;;1855620;76;21566;-77
2023/02/09 01:04:52;;;;;;;59.88;48.80;;;27.00;93.20;;;;;;1865423;76;21082;-77
2023/02/09 01:07:23;;;;;;;67.10;49.35;;;27.00;93.30;;;;;;1872432;76;21082;-78
2023/02/09 01:09:55;;;;;;;66.33;49.67;;;27.00;93.20;;;;;;1859758;76;21617;-77
2023/02/09 01:12:26;;;;;;;64.62;49.13;;;27.10;93.30;;;;;;1869947;75;21093;-78
2023/02/09 01:14:57;;;;;;;62.95;50.92;;;27.00;93.30;;;;;;1887393;76;21148;-79
2023/02/09 01:17:29;;;;;;;63.02;51.45;;;27.00;93.30;;;;;;1863806;76;21121;-79
2023/02/09 01:20:00;;;;;;;61.23;48.05;;;27.00;93.50;;;;;;1869794;76;21474;-78
2023/02/09 01:22:31;;;;;;;63.75;50.35;;;27.00;93.40;;;;;;1860669;75;21064;-80
2023/02/09 01:25:02;;;;;;;60.70;49.60;;;27.00;93.50;;;;;;1860266;75;21189;-81
2023/02/09 01:27:34;;;;;;;61.90;45.52;;;27.00;93.40;;;;;;1854658;76;21084;-80
2023/02/09 01:30:06;;;;;;;63.10;49.38;;;27.00;93.10;;;;;;1889214;76;21683;-82
2023/02/09 01:32:47;;;;;;;55.60;45.73;;;27.10;93.10;;;;;;1801089;78;21235;-80
2023/02/09 01:35:19;;;;;;;55.90;44.45;;;27.20;93.00;;;;;;1820171;78;21227;-81
2023/02/09 01:37:57;;;;;;;54.55;44.03;;;27.30;93.00;;;;;;1841551;76;21089;-81
2023/02/09 01:40:29;;;;;;;59.18;44.45;;;27.30;92.70;;;;;;1817369;77;21529;-80
2023/02/09 01:43:02;;;;;;;51.42;42.90;;;27.40;92.60;;;;;;1808035;77;21113;-80
2023/02/09 01:45:43;;;;;;;51.60;43.92;;;27.40;92.50;;;;;;1863991;77;21563;-83
2023/02/09 01:48:20;;;;;;;52.80;41.60;;;27.50;92.40;;;;;;1855420;77;21227;-80
2023/02/09 01:50:53;;;;;;;44.85;39.90;;;27.50;92.30;;;;;;1828961;77;21101;-81
2023/02/09 01:53:25;;;;;;;49.00;39.25;;;27.60;92.20;;;;;;1832841;77;21172;-80
2023/02/09 01:56:00;;;;;;;43.60;38.40;;;27.70;92.00;;;;;;1837891;77;21624;-81
2023/02/09 01:58:32;;;;;;;50.98;35.95;;;27.70;91.80;;;;;;1829958;77;21088;-84
2023/02/09 02:01:11;;;;;;;126.72;43.38;;;27.80;91.60;;;;;;1864959;77;21112;-84
2023/02/09 02:03:43;;;;;;;54.20;35.58;;;27.90;91.50;;;;;;1857746;77;21124;-84
2023/02/09 02:06:16;;;;;;;42.75;31.62;;;28.00;91.30;;;;;;1823686;77;21576;-83
2023/02/09 02:08:59;;;;;;;35.03;30.20;;;28.10;91.00;;;;;;1827084;78;21160;-72
2023/02/09 02:11:31;;;;;;;38.38;31.93;;;28.20;90.40;;;;;;1801134;77;21517;-72
2023/02/09 02:14:03;;;;;;;39.27;29.50;;;28.30;90.20;;;;;;1776095;79;21666;-73
2023/02/09 02:16:52;;;;;;;33.98;28.90;;;28.40;90.30;;;;;;1761115;81;21188;-72
2023/02/09 02:19:38;;;;;;;32.88;27.93;;;28.50;90.10;;;;;;1756740;80;21116;-73
2023/02/09 02:22:26;;;;;;;34.67;29.35;;;28.50;90.20;;;;;;1793750;80;21147;-74
2023/02/09 02:25:07;;;;;;;31.93;27.62;;;28.60;90.10;;;;;;1809251;79;21178;-73
2023/02/09 02:27:57;;;;;;;43.33;30.27;;;28.70;90.10;;;;;;1812403;79;21610;-74
2023/02/09 02:30:36;;;;;;;35.85;29.15;;;28.70;90.00;;;;;;1750877;78;21164;-74
2023/02/09 02:33:43;;;;;;;32.98;28.42;;;28.80;89.70;;;;;;1818883;78;21587;-74
2023/02/09 02:36:18;;;;;;;37.10;28.10;;;28.90;89.50;;;;;;1821945;79;21085;-73
2023/02/09 02:39:11;;;;;;;32.58;27.45;;;29.00;89.50;;;;;;1817594;77;21172;-74
2023/02/09 02:44:39;;;;;;;42.40;25.70;;;29.10;88.50;;;;;;1841889;77;21553;-73
2023/02/09 02:47:13;;;;;;;30.65;24.35;;;29.20;88.20;;;;;;1827974;77;21077;-72
2023/02/09 02:49:52;;;;;;;28.87;24.27;;;29.30;87.90;;;;;;1822724;77;21606;-75
2023/02/09 02:52:23;;;;;;;35.23;24.40;;;29.30;87.50;;;;;;1826242;77;21236;-73
2023/02/09 02:55:03;;;;;;;28.92;23.10;;;29.40;87.40;;;;;;1796108;78;21162;-74
2023/02/09 02:57:36;;;;;;;27.25;23.07;;;29.50;86.50;;;;;;1807070;78;21083;-73
2023/02/09 03:00:12;;;;;;;28.85;22.45;;;29.60;86.20;;;;;;1809705;77;21557;-73
2023/02/09 03:02:52;;;;;;;25.40;20.95;;;29.70;85.70;;;;;;1826045;77;21552;-74
2023/02/09 03:05:26;;;;;;;23.80;20.45;;;29.80;85.40;;;;;;1833460;77;21101;-73
2023/02/09 03:07:56;;;;;;;23.80;20.10;;;29.90;84.90;;;;;;1842272;77;21140;-74
2023/02/09 03:10:36;;;;;;;24.27;21.60;;;29.90;84.40;;;;;;1826797;77;21415;-74
2023/02/09 03:13:18;;;;;;;67.80;23.87;;;30.00;84.40;;;;;;1846646;77;21147;-73
2023/02/09 03:16:21;;;;;;;34.00;21.60;;;30.00;83.70;;;;;;1786409;80;21173;-74
2023/02/09 03:19:09;;;;;;;35.88;22.40;;;30.10;83.70;;;;;;1788159;78;21204;-73
2023/02/09 03:21:43;;;;;;;36.42;20.97;;;30.20;83.60;;;;;;1790457;78;21647;-73
2023/02/09 03:24:33;;;;;;;32.73;20.43;;;30.30;83.70;;;;;;1789380;78;21613;-73
2023/02/09 03:27:16;;;;;;;34.23;21.45;;;30.30;83.10;;;;;;1788415;79;21118;-75
2023/02/09 03:29:50;;;;;;;47.80;26.93;;;30.40;81.90;;;;;;1800705;78;21629;-75
2023/02/09 03:32:22;;;;;;;26.77;21.97;;;30.40;81.30;;;;;;1787430;79;21098;-74
2023/02/09 03:34:55;;;;;;;28.75;21.75;;;30.50;81.20;;;;;;1837882;77;21625;-72
2023/02/09 03:37:26;;;;;;;30.37;22.30;;;30.60;81.40;;;;;;1851669;77;21115;-72
2023/02/09 03:39:58;;;;;;;32.73;22.77;;;30.70;81.80;;;;;;1845835;77;21531;-73
2023/02/09 03:42:29;;;;;;;26.05;22.25;;;30.80;82.00;;;;;;1856955;77;21163;-73
2023/02/09 03:45:00;;;;;;;27.65;21.97;;;30.80;81.50;;;;;;1850278;76;21105;-72
2023/02/09 03:47:31;;;;;;;31.62;22.98;;;30.90;80.80;;;;;;1827687;77;21179;-73
2023/02/09 03:50:02;;;;;;;29.60;22.93;;;31.10;80.10;;;;;;1843112;77;21638;-72
2023/02/09 03:52:33;;;;;;;27.93;22.17;;;31.20;79.30;;;;;;1847174;77;21103;-72
2023/02/09 03:55:06;;;;;;;26.87;22.45;;;31.40;79.10;;;;;;1824606;77;21132;-73
2023/02/09 03:57:38;;;;;;;25.88;21.57;;;31.40;79.00;;;;;;1817851;77;21298;-72
2023/02/09 04:00:11;;;;;;;26.60;21.02;;;31.50;78.30;;;;;;1847263;77;21123;-74
2023/02/09 04:02:43;;;;;;;25.08;19.25;;;31.60;79.00;;;;;;1851621;77;21075;-73
2023/02/09 04:05:34;;;;;;;73.40;21.17;;;31.70;75.90;;;;;;1833834;77;21123;-73
2023/02/09 04:08:05;;;;;;;23.67;19.80;;;31.80;75.60;;;;;;1819967;79;21612;-72
2023/02/09 04:10:37;;;;;;;22.80;17.52;;;31.80;76.20;;;;;;1776362;81;21111;-72
2023/02/09 04:13:08;;;;;;;37.30;20.50;;;31.90;73.50;;;;;;1770399;79;21173;-72
2023/02/09 04:15:39;;;;;;;29.02;18.23;;;31.90;73.50;;;;;;1820153;78;21119;-73
2023/02/09 04:18:10;;;;;;;42.25;19.95;;;31.90;73.50;;;;;;1798023;79;21205;-74
2023/02/09 04:20:41;;;;;;;22.15;17.77;;;32.00;73.80;;;;;;1791780;79;21113;-73
2023/02/09 04:23:14;;;;;;;54.75;23.32;;;32.10;71.80;;;;;;1848129;76;21530;-86
2023/02/09 04:25:44;;;;;;;34.58;20.23;;;32.10;72.50;;;;;;1851710;76;21079;-86
2023/02/09 04:28:15;;;;;;;23.85;20.97;;;32.10;72.30;;;;;;1849547;77;21091;-86
2023/02/09 04:30:47;;;;;;;46.53;22.32;;;32.30;71.40;;;;;;1837290;78;21564;-87
2023/02/09 04:33:18;;;;;;;24.45;20.23;;;32.30;72.00;;;;;;1838440;78;21337;-87
2023/02/09 04:35:49;;;;;;;34.10;22.50;;;32.40;70.70;;;;;;1852725;76;21199;-86
2023/02/09 04:38:21;;;;;;;25.17;21.05;;;32.40;69.80;;;;;;1833573;76;21599;-75
2023/02/09 04:40:59;;;;;;;35.50;23.10;;;32.50;70.20;;;;;;1831806;78;21100;-77
2023/02/09 04:43:29;;;;;;;27.50;22.48;;;32.50;70.40;;;;;;1805440;79;21100;-76
2023/02/09 04:46:06;;;;;;;25.85;22.98;;;32.60;70.00;;;;;;1810359;78;21615;-78
2023/02/09 04:48:37;;;;;;;29.87;22.77;;;32.60;69.10;;;;;;1829825;78;21096;-78
2023/02/09 04:51:11;;;;;;;25.85;23.15;;;32.70;70.20;;;;;;1812887;78;21648;-78
2023/02/09 04:53:42;;;;;;;29.48;23.00;;;32.70;68.90;;;;;;1800276;79;21085;-78
2023/02/09 04:56:16;;;;;;;28.67;24.25;;;32.80;68.50;;;;;;1815124;79;21162;-77
2023/02/09 05:01:36;;;;;;;28.10;21.80;;;32.90;68.70;;;;;;1814725;78;21552;-77
2023/02/09 05:04:08;;;;;;;28.77;22.65;;;33.00;67.30;;;;;;1819075;76;21594;-77
2023/02/09 05:06:39;;;;;;;31.02;22.35;;;33.10;67.40;;;;;;1831297;78;21158;-76
2023/02/09 05:09:11;;;;;;;25.77;20.75;;;33.10;67.40;;;;;;1839734;78;21159;-77
2023/02/09 05:11:42;;;;;;;24.60;21.02;;;33.20;67.10;;;;;;1816223;77;21113;-78
2023/02/09 05:14:19;;;;;;;21.90;19.48;;;33.20;67.20;;;;;;1831211;76;21148;-77
2023/02/09 05:16:49;;;;;;;23.22;20.72;;;33.30;67.70;;;;;;1848779;76;21539;-77
2023/02/09 05:19:21;;;;;;;26.97;20.48;;;33.30;66.80;;;;;;1879209;76;21129;-76
2023/02/09 05:21:52;;;;;;;23.20;20.68;;;33.40;67.90;;;;;;1844016;76;21166;-76
2023/02/09 05:24:23;;;;;;;23.45;19.40;;;33.40;67.90;;;;;;1823004;77;21162;-79
2023/02/09 05:26:54;;;;;;;20.82;18.73;;;33.40;67.50;;;;;;1824950;76;21091;-76
2023/02/09 05:29:26;;;;;;;23.18;19.40;;;33.50;67.40;;;;;;1885834;76;21096;-78
2023/02/09 05:31:58;;;;;;;24.85;19.90;;;33.60;65.80;;;;;;1854489;76;21144;-76
2023/02/09 05:34:29;;;;;;;22.58;18.48;;;33.70;66.50;;;;;;1842887;76;21093;-77
2023/02/09 05:37:00;;;;;;;20.32;18.17;;;33.70;66.50;;;;;;1841048;78;21108;-76
2023/02/09 05:39:36;;;;;;;22.52;19.37;;;33.70;66.70;;;;;;1842889;76;21092;-76
2023/02/09 05:42:16;;;;;;;21.93;19.60;;;33.80;67.90;;;;;;1879886;76;21100;-77
2023/02/09 05:44:51;;;;;;;24.55;18.73;;;33.80;65.50;;;;;;1880459;75;21484;-78
2023/02/09 05:47:25;;;;;;;22.27;19.77;;;33.90;64.40;;;;;;1886078;76;21095;-78
2023/02/09 05:49:56;;;;;;;22.32;20.00;;;33.90;64.90;;;;;;1882850;76;21092;-77
2023/02/09 05:52:28;;;;;;;25.15;20.40;;;33.80;66.50;;;;;;1874933;76;21159;-79
2023/02/09 05:54:59;;;;;;;24.40;21.75;;;33.80;66.20;;;;;;1839735;76;21143;-78
2023/02/09 05:57:31;;;;;;;24.47;20.70;;;33.90;67.10;;;;;;1846154;78;21124;-77
2023/02/09 06:00:03;;;;;;;24.23;21.25;;;33.90;66.50;;;;;;1863063;76;21614;-77
2023/02/09 06:02:35;;;;;;;23.22;20.30;;;33.80;66.60;;;;;;1886088;76;21088;-76
2023/02/09 06:05:07;;;;;;;25.48;21.82;;;33.70;66.90;;;;;;1861703;76;21587;-77
2023/02/09 06:07:38;;;;;;;27.45;23.38;;;33.50;66.30;;;;;;1821064;77;21190;-77
2023/02/09 06:10:10;;;;;;;24.25;20.50;;;33.40;65.90;;;;;;1854208;76;21097;-78
2023/02/09 06:12:41;;;;;;;23.52;20.92;;;33.40;66.40;;;;;;1868559;76;21099;-78
2023/02/09 06:15:12;;;;;;;24.85;20.75;;;33.40;67.30;;;;;;1880951;76;21116;-77
2023/02/09 06:17:43;;;;;;;27.30;22.62;;;33.50;67.60;;;;;;1878056;76;21159;-77
2023/02/09 06:20:14;;;;;;;38.85;23.73;;;33.60;66.60;;;;;;1861525;75;21144;-78
2023/02/09 06:22:45;;;;;;;24.98;22.37;;;33.50;66.10;;;;;;1836705;78;21079;-77
2023/02/09 06:25:16;;;;;;;38.95;23.20;;;33.40;67.20;;;;;;1842734;76;21155;-75
2023/02/09 06:27:47;;;;;;;27.50;20.48;;;33.30;67.10;;;;;;1863615;75;21605;-77
2023/02/09 06:30:20;;;;;;;28.12;21.75;;;33.40;67.30;;;;;;1826394;77;21149;-77
2023/02/09 06:32:50;;;;;;;25.70;20.90;;;33.40;66.30;;;;;;1841997;78;21131;-78
2023/02/09 06:35:21;;;;;;;22.70;20.05;;;33.50;66.00;;;;;;1863687;76;21122;-77
2023/02/09 06:37:53;;;;;;;25.12;21.17;;;33.40;65.80;;;;;;1838011;77;21092;-76
2023/02/09 06:40:25;;;;;;;45.08;21.82;;;33.40;66.50;;;;;;1824060;77;21156;-76
2023/02/09 06:42:56;;;;;;;30.82;20.52;;;33.40;67.20;;;;;;1849645;76;21137;-76
2023/02/09 06:45:27;;;;;;;32.05;19.98;;;33.30;66.80;;;;;;1856700;76;21132;-77
2023/02/09 06:47:58;;;;;;;27.10;19.25;;;33.20;66.90;;;;;;1843451;78;21063;-77
2023/02/09 06:50:29;;;;;;;24.18;19.50;;;33.30;65.40;;;;;;1846682;76;21615;-76
2023/02/09 06:53:01;;;;;;;30.72;20.60;;;33.40;64.40;;;;;;1861467;76;21159;-77
2023/02/09 06:55:36;;;;;;;29.82;21.02;;;33.50;65.40;;;;;;1855820;75;21488;-75
2023/02/09 06:58:07;;;;;;;33.78;21.15;;;33.60;65.70;;;;;;1854075;77;21090;-77
2023/02/09 07:00:58;;;;;;;25.23;19.87;;;33.50;66.20;;;;;;1850493;76;21526;-76
2023/02/09 07:03:30;;;;;;;24.77;20.95;;;33.60;65.50;;;;;;1854120;76;21178;-76
2023/02/09 07:06:09;;;;;;;24.43;19.70;;;33.70;65.30;;;;;;1855922;77;21118;-78
2023/02/09 07:08:41;;;;;;;26.23;20.45;;;33.70;65.30;;;;;;1843052;77;21105;-76
2023/02/09 07:11:19;;;;;;;22.37;20.12;;;33.80;64.40;;;;;;1840895;77;21507;-77
2023/02/09 07:13:49;;;;;;;28.50;20.48;;;33.80;64.60;;;;;;1854260;77;21135;-76
2023/02/09 07:16:20;;;;;;;22.58;20.20;;;33.90;63.10;;;;;;1842581;76;21079;-77
2023/02/09 07:18:51;;;;;;;23.83;20.92;;;33.90;63.30;;;;;;1833853;77;21212;-77
2023/02/09 07:21:23;;;;;;;24.07;19.82;;;33.90;62.80;;;;;;1863431;76;21076;-77
2023/02/09 07:23:55;;;;;;;28.32;20.17;;;34.00;61.80;;;;;;1836002;76;21092;-90
2023/02/09 07:26:27;;;;;;;22.85;20.40;;;34.00;62.00;;;;;;1823555;77;21154;-87
2023/02/09 07:28:58;;;;;;;23.25;18.95;;;34.00;63.20;;;;;;1806464;79;21154;-87
2023/02/09 07:31:29;;;;;;;23.62;20.25;;;34.10;63.70;;;;;;1814937;78;21232;-88
2023/02/09 07:34:03;;;;;;;22.50;20.20;;;34.00;63.20;;;;;;1871682;75;21610;-88
2023/02/09 07:36:34;;;;;;;23.45;20.75;;;34.00;63.30;;;;;;1841737;76;21562;-88
2023/02/09 07:39:05;;;;;;;23.52;20.82;;;34.10;63.00;;;;;;1867009;77;21075;-87
2023/02/09 07:41:37;;;;;;;23.40;20.95;;;34.00;63.40;;;;;;1843388;77;21095;-85
2023/02/09 07:44:09;;;;;;;23.80;20.37;;;34.00;64.10;;;;;;1869198;76;21237;-86
2023/02/09 07:46:40;;;;;;;27.17;21.12;;;34.00;63.90;;;;;;1868861;77;21150;-85
2023/02/09 07:49:12;;;;;;;23.45;20.95;;;33.90;63.40;;;;;;1868471;77;21144;-87
2023/02/09 07:51:44;;;;;;;21.95;19.70;;;33.90;63.00;;;;;;1851285;75;21073;-86
2023/02/09 07:54:16;;;;;;;22.80;20.40;;;33.90;63.10;;;;;;1878892;75;21103;-86
2023/02/09 07:56:46;;;;;;;22.80;20.10;;;33.80;63.00;;;;;;1873059;75;21484;-87
2023/02/09 07:59:17;;;;;;;22.05;19.85;;;33.80;64.30;;;;;;1868689;76;21080;-88
2023/02/09 08:01:48;;;;;;;22.58;20.20;;;33.90;63.00;;;;;;1867455;75;21087;-88
2023/02/09 08:04:19;;;;;;;23.27;19.98;;;33.90;62.00;;;;;;1879316;75;21112;-85
2023/02/09 08:07:01;;;;;;;24.23;20.20;;;33.90;62.40;;;;;;1870219;75;21539;-88
2023/02/09 08:09:32;;;;;;;22.40;18.92;;;33.90;61.80;;;;;;1829349;77;21080;-89
2023/02/09 08:12:08;;;;;;;25.12;19.70;;;33.90;61.30;;;;;;1806134;78;21277;-88
2023/02/09 08:14:43;;;;;;;26.57;20.68;;;33.90;61.50;;;;;;1849055;75;21582;-89
2023/02/09 08:17:19;;;;;;;22.65;20.40;;;33.80;62.20;;;;;;1867824;77;21162;-87
2023/02/09 08:19:56;;;;;;;23.73;20.75;;;33.80;62.00;;;;;;1868065;77;21140;-87
2023/02/09 08:22:29;;;;;;;20.60;18.50;;;33.70;61.50;;;;;;1851627;77;21159;-88
2023/02/09 08:25:03;;;;;;;24.25;19.50;;;33.70;62.10;;;;;;1860139;75;21155;-88
2023/02/09 08:27:42;;;;;;;22.10;19.12;;;33.70;61.80;;;;;;1866308;76;21146;-88
2023/02/09 08:30:18;;;;;;;27.85;20.00;;;33.70;61.70;;;;;;1865996;76;21104;-90
2023/02/09 08:32:49;;;;;;;26.97;19.45;;;33.70;62.30;;;;;;1836702;77;21178;-88
2023/02/09 08:35:22;;;;;;;27.50;19.27;;;33.70;61.80;;;;;;1831461;76;21089;-90
2023/02/09 08:37:53;;;;;;;21.12;18.75;;;33.70;61.20;;;;;;1823606;77;21162;-88
2023/02/09 08:40:25;;;;;;;27.90;19.82;;;33.80;61.10;;;;;;1863376;75;21155;-88
2023/02/09 08:42:57;;;;;;;22.55;19.57;;;33.80;61.20;;;;;;1857168;75;21150;-89
2023/02/09 08:45:28;;;;;;;24.55;19.60;;;33.80;62.30;;;;;;1830268;76;21520;-87
2023/02/09 08:48:00;;;;;;;23.47;19.95;;;33.80;61.20;;;;;;1839435;76;21209;-88
2023/02/09 08:50:31;;;;;;;22.62;18.37;;;33.80;61.50;;;;;;1803560;77;21143;-89
2023/02/09 08:53:05;;;;;;;23.92;18.23;;;33.90;61.60;;;;;;1857362;75;21123;-88
2023/02/09 08:55:38;;;;;;;19.95;17.95;;;33.90;61.60;;;;;;1840846;77;21592;-89
2023/02/09 08:58:08;;;;;;;24.82;18.17;;;33.80;60.60;;;;;;1843501;76;21146;-88
2023/02/09 09:00:39;;;;;;;22.60;17.82;;;33.80;60.20;;;;;;1826358;78;21069;-90
2023/02/09 09:03:13;;;;;;;20.72;18.15;;;33.80;60.70;;;;;;1851706;77;21110;-86
2023/02/09 09:05:45;;;;;;;24.87;17.37;;;33.80;61.20;;;;;;1840334;76;21185;-89
2023/02/09 09:08:16;;;;;;;20.35;17.77;;;33.80;60.10;;;;;;1853974;76;21174;-89
2023/02/09 09:10:50;;;;;;;19.92;17.77;;;33.80;60.60;;;;;;1877631;76;21111;-86
2023/02/09 09:13:24;;;;;;;19.85;17.12;;;33.80;60.50;;;;;;1849526;77;21190;-89
2023/02/09 09:15:55;;;;;;;22.55;18.75;;;33.80;60.60;;;;;;1874421;75;21520;-88
2023/02/09 09:18:27;;;;;;;22.80;17.85;;;33.90;60.50;;;;;;1871828;75;21146;-91
2023/02/09 09:20:59;;;;;;;20.15;18.05;;;33.90;61.30;;;;;;1860145;75;21139;-89
2023/02/09 09:23:31;;;;;;;21.15;17.50;;;33.90;61.00;;;;;;1855930;76;21191;-88
2023/02/09 09:26:05;;;;;;;19.98;17.87;;;33.90;61.20;;;;;;1846185;77;21240;-91
2023/02/09 09:28:36;;;;;;;20.72;17.30;;;33.80;61.80;;;;;;1810865;77;21107;-90
2023/02/09 09:31:14;;;;;;;27.07;18.32;;;33.80;62.00;;;;;;1872182;75;21200;-91
2023/02/09 09:33:46;;;;;;;19.17;17.15;;;33.80;61.30;;;;;;1828607;77;21152;-88
2023/02/09 09:36:40;;;;;;;19.45;16.90;;;33.80;60.40;;;;;;1822371;78;21093;-90
2023/02/09 09:39:29;;;;;;;29.32;18.40;;;33.80;61.30;;;;;;1855195;77;21654;-84
2023/02/09 09:42:01;;;;;;;22.13;17.20;;;33.70;61.20;;;;;;1852088;77;21140;-87
2023/02/09 09:44:37;;;;;;;20.17;18.00;;;33.70;61.90;;;;;;1850760;76;21094;-87
2023/02/09 09:47:16;;;;;;;23.67;18.45;;;33.70;62.60;;;;;;1844117;76;21213;-87
2023/02/09 09:49:50;;;;;;;22.05;18.87;;;33.70;63.20;;;;;;1872137;75;21178;-86
2023/02/09 09:52:24;;;;;;;21.82;16.70;;;33.70;63.00;;;;;;1812862;78;21088;-88
2023/02/09 09:54:55;;;;;;;23.05;18.90;;;33.60;63.40;;;;;;1805391;77;21179;-85
2023/02/09 09:57:28;;;;;;;18.98;16.65;;;33.60;63.40;;;;;;1845979;76;21098;-87
2023/02/09 10:00:04;;;;;;;21.77;17.60;;;33.50;63.30;;;;;;1835912;77;21204;-87
2023/02/09 10:02:35;;;;;;;22.67;17.55;;;33.50;63.80;;;;;;1869455;75;21139;-90
2023/02/09 10:05:17;;;;;;;26.42;19.10;;;33.40;63.60;;;;;;1864287;75;21134;-89
2023/02/09 10:08:02;;;;;;;24.23;18.80;;;33.30;64.10;;;;;;1859774;76;21301;-91
2023/02/09 10:10:47;;;;;;;23.00;19.15;;;33.40;64.40;;;;;;1861076;76;21095;-89
2023/02/09 10:13:26;;;;;;;21.37;17.30;;;33.30;64.20;;;;;;1839246;77;21137;-89
2023/02/09 10:16:01;;;;;;;26.23;18.67;;;33.30;64.20;;;;;;1855185;76;21128;-87
2023/02/09 10:18:36;;;;;;;20.62;18.35;;;33.20;65.10;;;;;;1851655;77;21066;-89
2023/02/09 10:21:10;;;;;;;24.00;18.27;;;33.20;64.40;;;;;;1847523;77;21067;-87
2023/02/09 10:23:41;;;;;;;;;;;33.10;64.90;;;;;;1853523;76;21166;-88
2023/02/09 10:26:20;;;;;;;23.87;18.25;;;33.10;65.30;;;;;;1843725;77;20436;-89
2023/02/09 10:29:00;;;;;;;22.30;18.12;;;33.10;65.30;;;;;;1842425;77;21578;-88
2023/02/09 10:31:33;;;;;;;24.63;20.12;;;33.10;65.50;;;;;;1842859;76;21106;-89
2023/02/09 10:34:10;;;;;;;23.05;18.73;;;33.00;65.80;;;;;;1866376;76;21608;-88
2023/02/09 10:36:49;;;;;;;29.27;22.65;;;33.00;65.30;;;;;;1855038;77;21082;-89
2023/02/09 10:39:34;;;;;;;20.88;18.62;;;32.90;65.10;;;;;;1847007;77;21141;-84
2023/02/09 10:42:25;;;;;;;21.20;19.00;;;32.90;65.00;;;;;;1851731;77;21086;-89
2023/02/09 10:44:59;;;;;;;30.82;19.67;;;32.90;65.20;;;;;;1843354;77;21130;-88
2023/02/09 10:47:31;;;;;;;24.10;19.55;;;32.90;65.80;;;;;;1852232;75;21138;-90
2023/02/09 10:50:16;;;;;;;26.35;22.10;;;32.80;66.10;;;;;;1846161;77;21183;-89
2023/02/09 10:53:14;;;;;;;25.72;21.57;;;32.80;66.70;;;;;;1854145;76;21064;-88
2023/02/09 10:55:46;;;;;;;23.38;20.48;;;32.70;66.80;;;;;;1855998;76;21656;-88
2023/02/09 10:58:31;;;;;;;24.80;20.95;;;32.60;67.00;;;;;;1837858;77;21149;-88
2023/02/09 11:01:07;;;;;;;28.43;22.60;;;32.60;67.20;;;;;;1852069;77;21525;-89
2023/02/09 11:03:40;;;;;;;25.62;21.33;;;32.60;67.60;;;;;;1852304;77;21168;-88
2023/02/09 11:06:20;;;;;;;25.30;19.50;;;32.60;67.80;;;;;;1849861;76;21191;-88
2023/02/09 11:08:53;;;;;;;27.82;20.45;;;32.50;68.10;;;;;;1839658;77;21248;-87
2023/02/09 11:11:30;;;;;;;32.03;21.52;;;32.50;68.10;;;;;;1832551;76;21264;-89
2023/02/09 11:14:04;;;;;;;25.17;21.65;;;32.50;68.30;;;;;;1845172;77;21143;-89
2023/02/09 11:16:55;;;;;;;22.75;20.15;;;32.40;68.30;;;;;;1827791;77;21194;-89
2023/02/09 11:19:54;;;;;;;22.15;19.75;;;32.40;68.60;;;;;;1821679;77;21132;-87
2023/02/09 11:22:37;;;;;;;28.55;21.82;;;32.40;68.90;;;;;;1849436;76;21143;-88
2023/02/09 11:25:30;;;;;;;24.52;21.60;;;32.40;69.00;;;;;;1847764;77;21168;-87
2023/02/09 11:28:10;;;;;;;30.12;21.87;;;32.30;69.20;;;;;;1809635;77;21147;-87
2023/02/09 11:30:59;;;;;;;24.43;21.33;;;32.30;69.40;;;;;;1844243;77;21252;-87
2023/02/09 11:33:54;;;;;;;26.12;23.30;;;32.30;69.60;;;;;;1838094;76;21069;-88
2023/02/09 11:36:30;;;;;;;27.15;21.82;;;32.20;70.00;;;;;;1855455;76;21132;-82
2023/02/09 11:39:15;;;;;;;24.43;21.20;;;32.20;70.00;;;;;;1859489;77;21138;-82
2023/02/09 11:45:06;;;;;;;26.05;22.25;;;32.20;70.20;;;;;;1831203;77;21073;-83
2023/02/09 11:47:48;;;;;;;25.35;22.00;;;32.10;70.10;;;;;;1843839;77;21127;-84
2023/02/09 11:50:27;;;;;;;25.95;23.27;;;32.10;70.40;;;;;;1823840;78;21104;-84
2023/02/09 11:53:01;;;;;;;29.27;23.50;;;32.10;70.40;;;;;;1827532;77;21571;-84
2023/02/09 11:55:49;;;;;;;29.20;24.18;;;32.00;70.50;;;;;;1806786;78;21622;-85
2023/02/09 11:58:24;;;;;;;30.30;23.83;;;32.00;70.80;;;;;;1830740;78;21144;-84
2023/02/09 12:01:06;;;;;;;28.38;24.23;;;32.00;70.90;;;;;;1818500;78;21186;-84
2023/02/09 12:03:41;;;;;;;28.85;23.95;;;32.00;71.10;;;;;;1823595;76;21174;-85
2023/02/09 12:06:21;;;;;;;35.45;25.50;;;32.00;71.10;;;;;;1829917;76;21615;-80
2023/02/09 12:08:57;;;;;;;31.35;25.70;;;32.00;71.20;;;;;;1819726;78;21151;-83
2023/02/09 12:11:44;;;;;;;35.23;26.73;;;31.90;71.30;;;;;;1830555;77;21143;-87
2023/02/09 12:14:29;;;;;;;32.63;26.77;;;31.80;71.30;;;;;;1826036;78;21412;-87
2023/02/09 12:17:08;;;;;;;33.48;27.37;;;31.90;71.60;;;;;;1832843;78;21080;-86
2023/02/09 12:19:42;;;;;;;34.38;26.42;;;31.80;71.40;;;;;;1830759;77;21103;-86
2023/02/09 12:22:36;;;;;;;34.55;26.10;;;31.80;71.70;;;;;;1828463;78;21076;-86
2023/02/09 12:25:13;;;;;;;31.25;26.90;;;31.80;71.70;;;;;;1834584;77;21159;-86
2023/02/09 12:27:50;;;;;;;35.30;26.35;;;31.70;72.00;;;;;;1823279;78;21747;-85
2023/02/09 12:30:50;;;;;;;32.73;24.82;;;31.70;72.00;;;;;;1780100;78;21108;-87
2023/02/09 12:33:27;;;;;;;34.45;26.48;;;31.70;72.10;;;;;;1821988;78;21071;-88
2023/02/09 12:36:09;;;;;;;34.70;26.15;;;31.70;72.20;;;;;;1825485;76;21158;-83
2023/02/09 12:38:56;;;;;;;36.88;27.60;;;31.60;72.30;;;;;;1830065;78;21163;-84
2023/02/09 12:41:40;;;;;;;37.23;27.05;;;31.60;72.50;;;;;;1799200;78;21268;-85
2023/02/09 12:44:18;;;;;;;32.58;26.30;;;31.60;72.70;;;;;;1818589;78;21178;-84
2023/02/09 12:46:53;;;;;;;34.48;26.90;;;31.60;72.70;;;;;;1814192;78;21178;-84
2023/02/09 12:49:32;;;;;;;35.52;28.85;;;31.60;72.90;;;;;;1830740;78;21560;-85
2023/02/09 12:52:05;;;;;;;36.38;28.38;;;31.50;72.90;;;;;;1814558;77;21151;-83
2023/02/09 12:54:44;;;;;;;34.20;27.15;;;31.50;73.20;;;;;;1855996;77;21097;-85
2023/02/09 12:57:21;;;;;;;30.02;26.37;;;31.50;73.30;;;;;;1856262;77;21132;-83
2023/02/09 12:59:55;;;;;;;30.85;27.00;;;31.50;73.60;;;;;;1856055;77;21147;-84
2023/02/09 13:02:49;;;;;;;32.40;26.75;;;31.40;73.50;;;;;;1857000;77;21184;-84
2023/02/09 13:05:37;;;;;;;30.52;26.57;;;31.40;73.70;;;;;;1863030;77;21060;-85
2023/02/09 13:08:16;;;;;;;31.48;26.55;;;31.40;73.80;;;;;;1862904;77;21546;-84
2023/02/09 13:10:52;;;;;;;28.65;25.68;;;31.40;73.90;;;;;;1863138;76;21064;-84
2023/02/09 13:13:49;;;;;;;27.13;24.32;;;31.40;74.00;;;;;;1874757;76;21063;-84
2023/02/09 13:16:25;;;;;;;31.55;26.15;;;31.40;74.10;;;;;;1867471;76;21149;-84
2023/02/09 13:19:01;;;;;;;30.15;26.93;;;31.40;74.20;;;;;;1852237;76;21098;-83
2023/02/09 13:21:59;;;;;;;30.65;26.57;;;31.30;74.30;;;;;;1858011;76;21569;-83